Current Weather

Lansing Muni

Chicago, Illinois (KIGQ)

Report from: Wednesday, August 17, 2022 7:35 PM CDT
Current time: Wednesday, August 17, 2022 8:03 PM CDT

Nearby weather
Weather history
Weather forecast

Temperature22.0°C (71.6°F)
Dew point15.7°C (60.3°F)
Winds 3 kts (1.5 m/s, 3.5 mph) North-Northeast (30°)
Visibility10 mi. (16.1 km)
Clouds Sky clear
Altimeter30.08 in.Hg (1019 mB)
Relative humidity68 %
Density altitude881 ft. (268 m)
Remarks Fully automated report
Automated weather observing station with precipitation discriminator
Flight conditions Visual Meteorological Conditions
Raw dataKIGQ 180035Z AUTO 03003KT 10SM CLR 22/16 A3008 RMK AO2 T02200157
An error has occurred. This application may no longer respond until reloaded. Reload 🗙